sensor_id;sensor_type;location;lat;lon;timestamp;P1;durP1;ratioP1;P2;durP2;ratioP2
17214;SDS011;8723;51.502;6.918;2023-02-28T00:00:13;6.93;;;5.40;;
17214;SDS011;8723;51.502;6.918;2023-02-28T00:02:41;6.55;;;5.40;;
17214;SDS011;8723;51.502;6.918;2023-02-28T00:05:10;6.32;;;5.22;;
17214;SDS011;8723;51.502;6.918;2023-02-28T00:07:38;6.85;;;5.80;;
17214;SDS011;8723;51.502;6.918;2023-02-28T00:10:06;7.22;;;5.63;;
17214;SDS011;8723;51.502;6.918;2023-02-28T00:12:33;7.40;;;5.93;;
17214;SDS011;8723;51.502;6.918;2023-02-28T00:15:00;8.88;;;6.30;;
17214;SDS011;8723;51.502;6.918;2023-02-28T00:17:27;8.90;;;6.50;;
17214;SDS011;8723;51.502;6.918;2023-02-28T00:19:55;7.43;;;6.28;;
17214;SDS011;8723;51.502;6.918;2023-02-28T00:22:28;8.90;;;6.25;;
17214;SDS011;8723;51.502;6.918;2023-02-28T00:24:55;6.70;;;5.32;;
17214;SDS011;8723;51.502;6.918;2023-02-28T00:27:22;6.45;;;5.85;;
17214;SDS011;8723;51.502;6.918;2023-02-28T00:29:49;7.35;;;6.32;;
17214;SDS011;8723;51.502;6.918;2023-02-28T00:32:16;8.88;;;6.80;;
17214;SDS011;8723;51.502;6.918;2023-02-28T00:34:43;8.43;;;5.90;;
17214;SDS011;8723;51.502;6.918;2023-02-28T00:37:11;6.95;;;5.95;;
17214;SDS011;8723;51.502;6.918;2023-02-28T00:39:39;6.90;;;5.97;;
17214;SDS011;8723;51.502;6.918;2023-02-28T00:42:07;7.78;;;5.72;;
17214;SDS011;8723;51.502;6.918;2023-02-28T00:44:34;7.32;;;5.80;;
17214;SDS011;8723;51.502;6.918;2023-02-28T00:47:01;7.47;;;5.90;;
17214;SDS011;8723;51.502;6.918;2023-02-28T00:49:28;6.32;;;5.63;;
17214;SDS011;8723;51.502;6.918;2023-02-28T00:51:56;7.13;;;5.53;;
17214;SDS011;8723;51.502;6.918;2023-02-28T00:54:23;9.23;;;5.50;;
17214;SDS011;8723;51.502;6.918;2023-02-28T00:56:53;6.88;;;5.40;;
17214;SDS011;8723;51.502;6.918;2023-02-28T00:59:20;5.55;;;5.00;;
17214;SDS011;8723;51.502;6.918;2023-02-28T01:01:47;6.50;;;5.25;;
17214;SDS011;8723;51.502;6.918;2023-02-28T01:04:14;6.03;;;4.97;;
17214;SDS011;8723;51.502;6.918;2023-02-28T01:06:41;7.68;;;5.25;;
17214;SDS011;8723;51.502;6.918;2023-02-28T01:09:09;5.80;;;4.88;;
17214;SDS011;8723;51.502;6.918;2023-02-28T01:11:36;5.87;;;5.00;;
17214;SDS011;8723;51.502;6.918;2023-02-28T01:14:05;5.85;;;5.22;;
17214;SDS011;8723;51.502;6.918;2023-02-28T01:16:32;6.65;;;5.20;;
17214;SDS011;8723;51.502;6.918;2023-02-28T01:18:59;5.90;;;4.88;;
17214;SDS011;8723;51.502;6.918;2023-02-28T01:21:26;5.90;;;5.30;;
17214;SDS011;8723;51.502;6.918;2023-02-28T01:23:55;5.97;;;5.38;;
17214;SDS011;8723;51.502;6.918;2023-02-28T01:26:23;7.13;;;5.25;;
17214;SDS011;8723;51.502;6.918;2023-02-28T01:28:51;7.03;;;5.00;;
17214;SDS011;8723;51.502;6.918;2023-02-28T01:31:20;6.90;;;5.40;;
17214;SDS011;8723;51.502;6.918;2023-02-28T01:33:48;6.88;;;4.78;;
17214;SDS011;8723;51.502;6.918;2023-02-28T01:36:16;7.22;;;5.40;;
17214;SDS011;8723;51.502;6.918;2023-02-28T01:38:43;6.93;;;5.37;;
17214;SDS011;8723;51.502;6.918;2023-02-28T01:41:13;6.57;;;5.20;;
17214;SDS011;8723;51.502;6.918;2023-02-28T01:43:58;7.77;;;5.20;;
17214;SDS011;8723;51.502;6.918;2023-02-28T01:46:29;5.53;;;4.60;;
17214;SDS011;8723;51.502;6.918;2023-02-28T01:48:58;5.27;;;4.50;;
17214;SDS011;8723;51.502;6.918;2023-02-28T01:51:28;5.85;;;4.75;;
17214;SDS011;8723;51.502;6.918;2023-02-28T01:53:57;6.57;;;4.80;;
17214;SDS011;8723;51.502;6.918;2023-02-28T01:56:27;5.22;;;4.72;;
17214;SDS011;8723;51.502;6.918;2023-02-28T01:58:55;5.13;;;4.63;;
17214;SDS011;8723;51.502;6.918;2023-02-28T02:01:23;5.47;;;4.75;;
17214;SDS011;8723;51.502;6.918;2023-02-28T02:03:53;5.07;;;4.57;;
17214;SDS011;8723;51.502;6.918;2023-02-28T02:06:21;6.43;;;4.85;;
17214;SDS011;8723;51.502;6.918;2023-02-28T02:08:48;5.47;;;4.57;;
17214;SDS011;8723;51.502;6.918;2023-02-28T02:11:17;5.32;;;4.60;;
17214;SDS011;8723;51.502;6.918;2023-02-28T02:13:52;5.70;;;4.75;;
17214;SDS011;8723;51.502;6.918;2023-02-28T02:16:24;5.40;;;4.70;;
17214;SDS011;8723;51.502;6.918;2023-02-28T02:18:57;5.45;;;4.90;;
17214;SDS011;8723;51.502;6.918;2023-02-28T02:27:15;5.63;;;4.97;;
17214;SDS011;8723;51.502;6.918;2023-02-28T02:29:52;5.15;;;4.65;;
17214;SDS011;8723;51.502;6.918;2023-02-28T02:32:28;7.35;;;4.97;;
17214;SDS011;8723;51.502;6.918;2023-02-28T02:35:02;5.97;;;5.03;;
17214;SDS011;8723;51.502;6.918;2023-02-28T02:37:35;6.72;;;5.30;;
17214;SDS011;8723;51.502;6.918;2023-02-28T02:40:07;5.70;;;5.10;;
17214;SDS011;8723;51.502;6.918;2023-02-28T02:42:40;6.68;;;4.90;;
17214;SDS011;8723;51.502;6.918;2023-02-28T02:45:09;5.78;;;5.07;;
17214;SDS011;8723;51.502;6.918;2023-02-28T02:47:38;5.63;;;5.00;;
17214;SDS011;8723;51.502;6.918;2023-02-28T02:50:08;6.97;;;5.10;;
17214;SDS011;8723;51.502;6.918;2023-02-28T02:52:39;5.22;;;4.68;;
17214;SDS011;8723;51.502;6.918;2023-02-28T02:55:08;7.80;;;5.40;;
17214;SDS011;8723;51.502;6.918;2023-02-28T02:57:38;6.35;;;5.05;;
17214;SDS011;8723;51.502;6.918;2023-02-28T03:00:07;5.53;;;4.93;;
17214;SDS011;8723;51.502;6.918;2023-02-28T03:02:35;6.55;;;5.35;;
17214;SDS011;8723;51.502;6.918;2023-02-28T03:05:04;6.13;;;4.97;;
17214;SDS011;8723;51.502;6.918;2023-02-28T03:07:34;5.57;;;4.80;;
17214;SDS011;8723;51.502;6.918;2023-02-28T03:10:02;5.68;;;4.60;;
17214;SDS011;8723;51.502;6.918;2023-02-28T03:12:32;5.25;;;4.68;;
17214;SDS011;8723;51.502;6.918;2023-02-28T03:15:03;5.40;;;4.88;;
17214;SDS011;8723;51.502;6.918;2023-02-28T03:17:39;5.32;;;4.47;;
17214;SDS011;8723;51.502;6.918;2023-02-28T03:20:11;6.50;;;4.57;;
17214;SDS011;8723;51.502;6.918;2023-02-28T03:22:47;4.88;;;4.40;;
17214;SDS011;8723;51.502;6.918;2023-02-28T03:25:20;5.35;;;4.82;;
17214;SDS011;8723;51.502;6.918;2023-02-28T03:27:53;5.15;;;4.28;;
17214;SDS011;8723;51.502;6.918;2023-02-28T03:30:22;5.95;;;5.07;;
17214;SDS011;8723;51.502;6.918;2023-02-28T03:32:53;5.43;;;4.80;;
17214;SDS011;8723;51.502;6.918;2023-02-28T03:35:22;5.10;;;4.60;;
17214;SDS011;8723;51.502;6.918;2023-02-28T03:37:52;5.10;;;4.60;;
17214;SDS011;8723;51.502;6.918;2023-02-28T03:40:21;5.30;;;4.70;;
17214;SDS011;8723;51.502;6.918;2023-02-28T03:42:50;5.60;;;4.70;;
17214;SDS011;8723;51.502;6.918;2023-02-28T03:45:19;5.10;;;4.35;;
17214;SDS011;8723;51.502;6.918;2023-02-28T03:47:49;4.88;;;4.25;;
17214;SDS011;8723;51.502;6.918;2023-02-28T03:50:18;4.85;;;4.18;;
17214;SDS011;8723;51.502;6.918;2023-02-28T03:52:48;4.32;;;3.92;;
17214;SDS011;8723;51.502;6.918;2023-02-28T03:55:18;4.60;;;4.20;;
17214;SDS011;8723;51.502;6.918;2023-02-28T03:57:49;4.43;;;4.03;;
17214;SDS011;8723;51.502;6.918;2023-02-28T04:00:18;4.80;;;4.03;;
17214;SDS011;8723;51.502;6.918;2023-02-28T04:02:46;4.85;;;4.13;;
17214;SDS011;8723;51.502;6.918;2023-02-28T04:05:17;4.40;;;4.00;;
17214;SDS011;8723;51.502;6.918;2023-02-28T04:07:44;4.38;;;3.97;;
17214;SDS011;8723;51.502;6.918;2023-02-28T04:10:11;4.40;;;4.00;;
17214;SDS011;8723;51.502;6.918;2023-02-28T04:12:41;5.40;;;4.00;;
17214;SDS011;8723;51.502;6.918;2023-02-28T04:15:08;4.43;;;4.03;;
17214;SDS011;8723;51.502;6.918;2023-02-28T04:17:36;3.97;;;3.57;;
17214;SDS011;8723;51.502;6.918;2023-02-28T04:20:03;4.03;;;3.63;;
17214;SDS011;8723;51.502;6.918;2023-02-28T04:22:34;5.18;;;3.95;;
17214;SDS011;8723;51.502;6.918;2023-02-28T04:25:01;5.70;;;4.10;;
17214;SDS011;8723;51.502;6.918;2023-02-28T04:27:28;4.35;;;3.95;;
17214;SDS011;8723;51.502;6.918;2023-02-28T04:29:57;4.28;;;3.80;;
17214;SDS011;8723;51.502;6.918;2023-02-28T04:32:24;4.63;;;4.22;;
17214;SDS011;8723;51.502;6.918;2023-02-28T04:34:51;4.43;;;4.03;;
17214;SDS011;8723;51.502;6.918;2023-02-28T04:37:18;4.40;;;4.00;;
17214;SDS011;8723;51.502;6.918;2023-02-28T04:39:45;4.25;;;3.85;;
17214;SDS011;8723;51.502;6.918;2023-02-28T04:42:12;4.28;;;3.88;;
17214;SDS011;8723;51.502;6.918;2023-02-28T04:44:39;4.30;;;3.90;;
17214;SDS011;8723;51.502;6.918;2023-02-28T04:47:08;4.57;;;4.03;;
17214;SDS011;8723;51.502;6.918;2023-02-28T04:49:35;4.35;;;3.80;;
17214;SDS011;8723;51.502;6.918;2023-02-28T04:52:03;4.78;;;4.35;;
17214;SDS011;8723;51.502;6.918;2023-02-28T04:54:32;4.18;;;3.83;;
17214;SDS011;8723;51.502;6.918;2023-02-28T04:56:59;4.13;;;3.80;;
17214;SDS011;8723;51.502;6.918;2023-02-28T04:59:26;4.60;;;4.20;;
17214;SDS011;8723;51.502;6.918;2023-02-28T05:01:54;4.38;;;3.72;;
17214;SDS011;8723;51.502;6.918;2023-02-28T05:04:22;4.28;;;3.88;;
17214;SDS011;8723;51.502;6.918;2023-02-28T05:06:49;4.55;;;4.05;;
17214;SDS011;8723;51.502;6.918;2023-02-28T05:09:16;5.30;;;4.22;;
17214;SDS011;8723;51.502;6.918;2023-02-28T05:11:43;4.75;;;4.22;;
17214;SDS011;8723;51.502;6.918;2023-02-28T05:14:11;4.30;;;3.90;;
17214;SDS011;8723;51.502;6.918;2023-02-28T05:16:39;4.35;;;3.95;;
17214;SDS011;8723;51.502;6.918;2023-02-28T05:19:06;3.80;;;3.50;;
17214;SDS011;8723;51.502;6.918;2023-02-28T05:21:35;4.40;;;4.00;;
17214;SDS011;8723;51.502;6.918;2023-02-28T05:24:03;4.70;;;3.95;;
17214;SDS011;8723;51.502;6.918;2023-02-28T05:26:33;4.93;;;4.32;;
17214;SDS011;8723;51.502;6.918;2023-02-28T05:29:00;4.40;;;4.00;;
17214;SDS011;8723;51.502;6.918;2023-02-28T05:31:28;4.87;;;4.20;;
17214;SDS011;8723;51.502;6.918;2023-02-28T05:33:55;4.85;;;4.35;;
17214;SDS011;8723;51.502;6.918;2023-02-28T05:36:22;5.63;;;4.82;;
17214;SDS011;8723;51.502;6.918;2023-02-28T05:38:51;4.80;;;4.40;;
17214;SDS011;8723;51.502;6.918;2023-02-28T05:41:18;4.82;;;4.00;;
17214;SDS011;8723;51.502;6.918;2023-02-28T05:43:46;5.10;;;3.92;;
17214;SDS011;8723;51.502;6.918;2023-02-28T05:46:13;5.38;;;4.00;;
17214;SDS011;8723;51.502;6.918;2023-02-28T05:48:40;4.50;;;4.10;;
17214;SDS011;8723;51.502;6.918;2023-02-28T05:51:08;4.95;;;4.43;;
17214;SDS011;8723;51.502;6.918;2023-02-28T05:53:35;5.90;;;5.40;;
17214;SDS011;8723;51.502;6.918;2023-02-28T05:56:04;5.35;;;4.85;;
17214;SDS011;8723;51.502;6.918;2023-02-28T05:58:31;4.97;;;4.53;;
17214;SDS011;8723;51.502;6.918;2023-02-28T06:01:00;4.35;;;3.95;;
17214;SDS011;8723;51.502;6.918;2023-02-28T06:03:27;4.50;;;4.10;;
17214;SDS011;8723;51.502;6.918;2023-02-28T06:05:54;5.00;;;4.10;;
17214;SDS011;8723;51.502;6.918;2023-02-28T06:08:22;6.05;;;4.40;;
17214;SDS011;8723;51.502;6.918;2023-02-28T06:10:49;4.97;;;4.47;;
17214;SDS011;8723;51.502;6.918;2023-02-28T06:13:17;4.50;;;4.10;;
17214;SDS011;8723;51.502;6.918;2023-02-28T06:15:44;5.25;;;4.75;;
17214;SDS011;8723;51.502;6.918;2023-02-28T06:18:11;5.33;;;4.60;;
17214;SDS011;8723;51.502;6.918;2023-02-28T06:20:38;4.95;;;3.92;;
17214;SDS011;8723;51.502;6.918;2023-02-28T06:23:07;6.20;;;4.30;;
17214;SDS011;8723;51.502;6.918;2023-02-28T06:25:34;5.68;;;4.80;;
17214;SDS011;8723;51.502;6.918;2023-02-28T06:28:01;5.13;;;4.63;;
17214;SDS011;8723;51.502;6.918;2023-02-28T06:30:30;4.95;;;4.40;;
17214;SDS011;8723;51.502;6.918;2023-02-28T06:32:58;4.88;;;4.38;;
17214;SDS011;8723;51.502;6.918;2023-02-28T06:35:25;4.95;;;4.53;;
17214;SDS011;8723;51.502;6.918;2023-02-28T06:37:52;5.20;;;4.70;;
17214;SDS011;8723;51.502;6.918;2023-02-28T06:40:20;6.55;;;5.20;;
17214;SDS011;8723;51.502;6.918;2023-02-28T06:42:47;6.32;;;4.65;;
17214;SDS011;8723;51.502;6.918;2023-02-28T06:45:14;6.30;;;5.32;;
17214;SDS011;8723;51.502;6.918;2023-02-28T06:47:42;5.40;;;4.70;;
17214;SDS011;8723;51.502;6.918;2023-02-28T06:50:11;6.18;;;5.32;;
17214;SDS011;8723;51.502;6.918;2023-02-28T06:52:38;6.00;;;5.18;;
17214;SDS011;8723;51.502;6.918;2023-02-28T06:55:06;7.05;;;5.50;;
17214;SDS011;8723;51.502;6.918;2023-02-28T06:57:34;5.85;;;5.25;;
17214;SDS011;8723;51.502;6.918;2023-02-28T07:00:03;7.03;;;5.45;;
17214;SDS011;8723;51.502;6.918;2023-02-28T07:02:32;7.07;;;5.40;;
17214;SDS011;8723;51.502;6.918;2023-02-28T07:05:01;6.72;;;5.70;;
17214;SDS011;8723;51.502;6.918;2023-02-28T07:07:28;6.65;;;5.53;;
17214;SDS011;8723;51.502;6.918;2023-02-28T07:09:55;5.95;;;5.32;;
17214;SDS011;8723;51.502;6.918;2023-02-28T07:12:22;9.18;;;5.88;;
17214;SDS011;8723;51.502;6.918;2023-02-28T07:14:49;7.60;;;6.07;;
17214;SDS011;8723;51.502;6.918;2023-02-28T07:17:16;7.30;;;6.15;;
17214;SDS011;8723;51.502;6.918;2023-02-28T07:19:43;6.88;;;6.05;;
17214;SDS011;8723;51.502;6.918;2023-02-28T07:22:12;8.60;;;6.50;;
17214;SDS011;8723;51.502;6.918;2023-02-28T07:24:39;7.93;;;6.65;;
17214;SDS011;8723;51.502;6.918;2023-02-28T07:27:06;8.32;;;7.47;;
17214;SDS011;8723;51.502;6.918;2023-02-28T07:29:33;9.50;;;8.48;;
17214;SDS011;8723;51.502;6.918;2023-02-28T07:32:00;8.15;;;6.82;;
17214;SDS011;8723;51.502;6.918;2023-02-28T07:34:27;7.33;;;5.90;;
17214;SDS011;8723;51.502;6.918;2023-02-28T07:36:55;7.18;;;5.63;;
17214;SDS011;8723;51.502;6.918;2023-02-28T07:39:23;8.13;;;5.50;;
17214;SDS011;8723;51.502;6.918;2023-02-28T07:41:50;8.07;;;6.03;;
17214;SDS011;8723;51.502;6.918;2023-02-28T07:44:17;8.37;;;6.40;;
17214;SDS011;8723;51.502;6.918;2023-02-28T07:46:46;7.93;;;6.13;;
17214;SDS011;8723;51.502;6.918;2023-02-28T07:49:13;7.15;;;6.00;;
17214;SDS011;8723;51.502;6.918;2023-02-28T07:51:40;7.97;;;6.30;;
17214;SDS011;8723;51.502;6.918;2023-02-28T07:54:07;7.07;;;5.95;;
17214;SDS011;8723;51.502;6.918;2023-02-28T07:56:35;8.95;;;5.80;;
17214;SDS011;8723;51.502;6.918;2023-02-28T07:59:02;9.50;;;6.10;;
17214;SDS011;8723;51.502;6.918;2023-02-28T08:01:30;7.57;;;5.47;;
17214;SDS011;8723;51.502;6.918;2023-02-28T08:03:57;8.57;;;5.97;;
17214;SDS011;8723;51.502;6.918;2023-02-28T08:06:24;7.90;;;5.60;;
17214;SDS011;8723;51.502;6.918;2023-02-28T08:08:55;7.47;;;6.20;;
17214;SDS011;8723;51.502;6.918;2023-02-28T08:11:22;9.50;;;6.20;;
17214;SDS011;8723;51.502;6.918;2023-02-28T08:13:50;7.97;;;5.70;;
17214;SDS011;8723;51.502;6.918;2023-02-28T08:16:18;6.68;;;5.63;;
17214;SDS011;8723;51.502;6.918;2023-02-28T08:18:47;5.32;;;4.70;;
17214;SDS011;8723;51.502;6.918;2023-02-28T08:21:14;6.45;;;4.97;;
17214;SDS011;8723;51.502;6.918;2023-02-28T08:23:41;8.88;;;5.90;;
17214;SDS011;8723;51.502;6.918;2023-02-28T08:26:08;5.97;;;5.18;;
17214;SDS011;8723;51.502;6.918;2023-02-28T08:28:36;7.70;;;5.32;;
17214;SDS011;8723;51.502;6.918;2023-02-28T08:31:08;9.18;;;6.35;;
17214;SDS011;8723;51.502;6.918;2023-02-28T08:33:35;6.30;;;5.45;;
17214;SDS011;8723;51.502;6.918;2023-02-28T08:36:04;5.87;;;5.27;;
17214;SDS011;8723;51.502;6.918;2023-02-28T08:38:31;7.75;;;5.20;;
17214;SDS011;8723;51.502;6.918;2023-02-28T08:40:59;9.18;;;5.72;;
17214;SDS011;8723;51.502;6.918;2023-02-28T08:43:26;5.90;;;5.30;;
17214;SDS011;8723;51.502;6.918;2023-02-28T08:45:53;5.65;;;4.82;;
17214;SDS011;8723;51.502;6.918;2023-02-28T08:48:23;7.50;;;4.90;;
17214;SDS011;8723;51.502;6.918;2023-02-28T08:50:56;5.03;;;4.53;;
17214;SDS011;8723;51.502;6.918;2023-02-28T08:53:23;5.90;;;4.47;;
17214;SDS011;8723;51.502;6.918;2023-02-28T08:55:57;6.22;;;4.10;;
17214;SDS011;8723;51.502;6.918;2023-02-28T08:58:24;4.00;;;3.60;;
17214;SDS011;8723;51.502;6.918;2023-02-28T09:00:52;5.85;;;4.00;;
17214;SDS011;8723;51.502;6.918;2023-02-28T09:03:19;7.07;;;4.00;;
17214;SDS011;8723;51.502;6.918;2023-02-28T09:05:55;4.53;;;3.92;;
17214;SDS011;8723;51.502;6.918;2023-02-28T09:08:22;6.03;;;4.40;;
17214;SDS011;8723;51.502;6.918;2023-02-28T09:10:50;5.68;;;3.40;;
17214;SDS011;8723;51.502;6.918;2023-02-28T09:13:17;3.55;;;3.22;;
17214;SDS011;8723;51.502;6.918;2023-02-28T09:15:44;3.55;;;2.85;;
17214;SDS011;8723;51.502;6.918;2023-02-28T09:18:11;4.13;;;3.53;;
17214;SDS011;8723;51.502;6.918;2023-02-28T09:20:38;8.38;;;6.07;;
17214;SDS011;8723;51.502;6.918;2023-02-28T09:23:07;5.82;;;5.22;;
17214;SDS011;8723;51.502;6.918;2023-02-28T09:25:34;5.28;;;3.08;;
17214;SDS011;8723;51.502;6.918;2023-02-28T09:28:02;4.65;;;4.15;;
17214;SDS011;8723;51.502;6.918;2023-02-28T09:30:29;4.50;;;3.33;;
17214;SDS011;8723;51.502;6.918;2023-02-28T09:32:56;3.65;;;3.15;;
17214;SDS011;8723;51.502;6.918;2023-02-28T09:35:24;3.10;;;2.80;;
17214;SDS011;8723;51.502;6.918;2023-02-28T09:37:51;3.53;;;3.22;;
17214;SDS011;8723;51.502;6.918;2023-02-28T09:40:20;4.30;;;2.92;;
17214;SDS011;8723;51.502;6.918;2023-02-28T09:42:49;3.40;;;2.90;;
17214;SDS011;8723;51.502;6.918;2023-02-28T09:45:19;3.30;;;3.00;;
17214;SDS011;8723;51.502;6.918;2023-02-28T09:47:48;3.90;;;2.97;;
17214;SDS011;8723;51.502;6.918;2023-02-28T09:50:21;3.63;;;2.65;;
17214;SDS011;8723;51.502;6.918;2023-02-28T09:52:49;4.38;;;2.88;;
17214;SDS011;8723;51.502;6.918;2023-02-28T09:55:19;4.15;;;3.25;;
17214;SDS011;8723;51.502;6.918;2023-02-28T09:57:48;4.30;;;2.80;;
17214;SDS011;8723;51.502;6.918;2023-02-28T10:00:18;3.20;;;2.90;;
17214;SDS011;8723;51.502;6.918;2023-02-28T10:02:51;3.00;;;2.33;;
17214;SDS011;8723;51.502;6.918;2023-02-28T10:05:23;2.40;;;2.20;;
17214;SDS011;8723;51.502;6.918;2023-02-28T10:07:58;3.00;;;2.08;;
17214;SDS011;8723;51.502;6.918;2023-02-28T10:10:34;3.22;;;2.92;;
17214;SDS011;8723;51.502;6.918;2023-02-28T10:13:05;2.85;;;2.65;;
17214;SDS011;8723;51.502;6.918;2023-02-28T10:15:33;2.50;;;2.30;;
17214;SDS011;8723;51.502;6.918;2023-02-28T10:18:01;4.05;;;2.45;;
17214;SDS011;8723;51.502;6.918;2023-02-28T10:20:29;3.40;;;2.10;;
17214;SDS011;8723;51.502;6.918;2023-02-28T10:23:00;3.70;;;3.40;;
17214;SDS011;8723;51.502;6.918;2023-02-28T10:25:32;3.13;;;2.70;;
17214;SDS011;8723;51.502;6.918;2023-02-28T10:28:01;3.88;;;2.70;;
17214;SDS011;8723;51.502;6.918;2023-02-28T10:30:33;2.47;;;2.20;;
17214;SDS011;8723;51.502;6.918;2023-02-28T10:33:01;3.58;;;2.53;;
17214;SDS011;8723;51.502;6.918;2023-02-28T10:35:28;2.95;;;2.40;;
17214;SDS011;8723;51.502;6.918;2023-02-28T10:37:56;2.65;;;2.25;;
17214;SDS011;8723;51.502;6.918;2023-02-28T10:40:28;2.47;;;2.10;;
17214;SDS011;8723;51.502;6.918;2023-02-28T10:42:56;3.63;;;2.30;;
17214;SDS011;8723;51.502;6.918;2023-02-28T10:45:23;2.60;;;2.00;;
17214;SDS011;8723;51.502;6.918;2023-02-28T10:47:53;2.78;;;2.35;;
17214;SDS011;8723;51.502;6.918;2023-02-28T10:50:25;2.63;;;2.10;;
17214;SDS011;8723;51.502;6.918;2023-02-28T10:52:53;2.75;;;2.25;;
17214;SDS011;8723;51.502;6.918;2023-02-28T10:55:22;4.05;;;2.20;;
17214;SDS011;8723;51.502;6.918;2023-02-28T10:57:50;3.55;;;1.92;;
17214;SDS011;8723;51.502;6.918;2023-02-28T11:00:18;2.55;;;2.30;;
17214;SDS011;8723;51.502;6.918;2023-02-28T11:02:46;2.20;;;1.85;;
17214;SDS011;8723;51.502;6.918;2023-02-28T11:05:28;2.50;;;2.28;;
17214;SDS011;8723;51.502;6.918;2023-02-28T11:07:56;4.97;;;4.47;;
17214;SDS011;8723;51.502;6.918;2023-02-28T11:10:26;3.08;;;2.30;;
17214;SDS011;8723;51.502;6.918;2023-02-28T11:12:55;2.58;;;2.38;;
17214;SDS011;8723;51.502;6.918;2023-02-28T11:15:24;2.78;;;2.47;;
17214;SDS011;8723;51.502;6.918;2023-02-28T11:17:55;2.17;;;1.98;;
17214;SDS011;8723;51.502;6.918;2023-02-28T11:20:23;1.93;;;1.70;;
17214;SDS011;8723;51.502;6.918;2023-02-28T11:22:53;2.20;;;2.00;;
17214;SDS011;8723;51.502;6.918;2023-02-28T11:25:21;2.70;;;2.20;;
17214;SDS011;8723;51.502;6.918;2023-02-28T11:27:50;2.30;;;1.90;;
17214;SDS011;8723;51.502;6.918;2023-02-28T11:30:24;2.17;;;2.00;;
17214;SDS011;8723;51.502;6.918;2023-02-28T11:32:51;2.85;;;2.22;;
17214;SDS011;8723;51.502;6.918;2023-02-28T11:35:21;2.20;;;2.10;;
17214;SDS011;8723;51.502;6.918;2023-02-28T11:37:50;2.53;;;2.08;;
17214;SDS011;8723;51.502;6.918;2023-02-28T11:40:19;4.15;;;2.10;;
17214;SDS011;8723;51.502;6.918;2023-02-28T11:42:50;4.18;;;2.25;;
17214;SDS011;8723;51.502;6.918;2023-02-28T11:45:27;2.55;;;2.10;;
17214;SDS011;8723;51.502;6.918;2023-02-28T11:48:00;2.45;;;2.00;;
17214;SDS011;8723;51.502;6.918;2023-02-28T11:50:38;2.50;;;2.30;;
17214;SDS011;8723;51.502;6.918;2023-02-28T11:53:10;2.65;;;2.22;;
17214;SDS011;8723;51.502;6.918;2023-02-28T11:55:39;4.65;;;1.98;;
17214;SDS011;8723;51.502;6.918;2023-02-28T11:58:25;3.22;;;2.05;;
17214;SDS011;8723;51.502;6.918;2023-02-28T12:00:56;4.15;;;2.30;;
17214;SDS011;8723;51.502;6.918;2023-02-28T12:03:31;3.00;;;2.10;;
17214;SDS011;8723;51.502;6.918;2023-02-28T12:06:07;3.00;;;2.10;;
17214;SDS011;8723;51.502;6.918;2023-02-28T12:08:42;2.28;;;2.03;;
17214;SDS011;8723;51.502;6.918;2023-02-28T12:11:12;3.35;;;2.50;;
17214;SDS011;8723;51.502;6.918;2023-02-28T12:13:43;2.97;;;2.03;;
17214;SDS011;8723;51.502;6.918;2023-02-28T12:16:17;3.20;;;2.13;;
17214;SDS011;8723;51.502;6.918;2023-02-28T12:18:50;2.20;;;2.00;;
17214;SDS011;8723;51.502;6.918;2023-02-28T12:21:22;3.50;;;2.20;;
17214;SDS011;8723;51.502;6.918;2023-02-28T12:24:00;3.03;;;2.40;;
17214;SDS011;8723;51.502;6.918;2023-02-28T12:26:36;4.38;;;2.50;;
17214;SDS011;8723;51.502;6.918;2023-02-28T12:29:05;3.45;;;2.38;;
17214;SDS011;8723;51.502;6.918;2023-02-28T12:31:38;2.35;;;2.15;;
17214;SDS011;8723;51.502;6.918;2023-02-28T12:34:08;2.35;;;2.15;;
17214;SDS011;8723;51.502;6.918;2023-02-28T12:36:37;2.45;;;2.00;;
17214;SDS011;8723;51.502;6.918;2023-02-28T12:39:06;4.03;;;2.20;;
17214;SDS011;8723;51.502;6.918;2023-02-28T12:41:39;4.28;;;2.90;;
17214;SDS011;8723;51.502;6.918;2023-02-28T12:44:08;3.13;;;2.83;;
17214;SDS011;8723;51.502;6.918;2023-02-28T12:46:36;3.38;;;2.50;;
17214;SDS011;8723;51.502;6.918;2023-02-28T12:49:06;4.03;;;2.40;;
17214;SDS011;8723;51.502;6.918;2023-02-28T12:51:35;2.92;;;2.63;;
17214;SDS011;8723;51.502;6.918;2023-02-28T12:54:04;2.88;;;2.67;;
17214;SDS011;8723;51.502;6.918;2023-02-28T12:56:38;2.85;;;2.35;;
17214;SDS011;8723;51.502;6.918;2023-02-28T12:59:10;2.85;;;2.55;;
17214;SDS011;8723;51.502;6.918;2023-02-28T13:01:47;2.83;;;2.50;;
17214;SDS011;8723;51.502;6.918;2023-02-28T13:07:17;9.55;;;6.97;;
17214;SDS011;8723;51.502;6.918;2023-02-28T13:09:51;3.45;;;3.13;;
17214;SDS011;8723;51.502;6.918;2023-02-28T13:12:20;3.33;;;3.13;;
17214;SDS011;8723;51.502;6.918;2023-02-28T13:14:47;4.05;;;3.00;;
17214;SDS011;8723;51.502;6.918;2023-02-28T13:17:17;4.00;;;3.28;;
17214;SDS011;8723;51.502;6.918;2023-02-28T13:19:46;4.82;;;4.07;;
17214;SDS011;8723;51.502;6.918;2023-02-28T13:22:35;5.00;;;4.50;;
17214;SDS011;8723;51.502;6.918;2023-02-28T13:25:04;2.88;;;2.63;;
17214;SDS011;8723;51.502;6.918;2023-02-28T13:27:53;3.45;;;2.85;;
17214;SDS011;8723;51.502;6.918;2023-02-28T13:33:26;3.10;;;2.90;;
17214;SDS011;8723;51.502;6.918;2023-02-28T13:36:08;4.57;;;4.18;;
17214;SDS011;8723;51.502;6.918;2023-02-28T13:38:40;3.85;;;3.50;;
17214;SDS011;8723;51.502;6.918;2023-02-28T13:44:03;4.10;;;3.80;;
17214;SDS011;8723;51.502;6.918;2023-02-28T13:46:30;3.85;;;3.15;;
17214;SDS011;8723;51.502;6.918;2023-02-28T13:51:40;3.20;;;2.90;;
17214;SDS011;8723;51.502;6.918;2023-02-28T13:54:14;3.07;;;2.60;;
17214;SDS011;8723;51.502;6.918;2023-02-28T13:56:45;3.33;;;2.83;;
17214;SDS011;8723;51.502;6.918;2023-02-28T13:59:19;4.45;;;3.10;;
17214;SDS011;8723;51.502;6.918;2023-02-28T14:01:50;3.05;;;2.70;;
17214;SDS011;8723;51.502;6.918;2023-02-28T14:07:05;3.20;;;2.90;;
17214;SDS011;8723;51.502;6.918;2023-02-28T14:09:33;2.67;;;2.47;;
17214;SDS011;8723;51.502;6.918;2023-02-28T14:14:54;4.07;;;3.50;;
17214;SDS011;8723;51.502;6.918;2023-02-28T14:17:24;2.85;;;2.50;;
17214;SDS011;8723;51.502;6.918;2023-02-28T14:19:52;2.90;;;2.58;;
17214;SDS011;8723;51.502;6.918;2023-02-28T14:22:25;4.67;;;4.23;;
17214;SDS011;8723;51.502;6.918;2023-02-28T14:25:08;6.97;;;5.60;;
17214;SDS011;8723;51.502;6.918;2023-02-28T14:27:37;4.95;;;4.55;;
17214;SDS011;8723;51.502;6.918;2023-02-28T14:33:00;4.30;;;3.90;;
17214;SDS011;8723;51.502;6.918;2023-02-28T14:35:43;4.00;;;3.60;;
17214;SDS011;8723;51.502;6.918;2023-02-28T14:38:14;3.42;;;3.13;;
17214;SDS011;8723;51.502;6.918;2023-02-28T14:40:43;3.05;;;2.85;;
17214;SDS011;8723;51.502;6.918;2023-02-28T14:43:18;3.00;;;2.70;;
17214;SDS011;8723;51.502;6.918;2023-02-28T14:45:48;3.25;;;2.95;;
17214;SDS011;8723;51.502;6.918;2023-02-28T14:48:17;3.63;;;2.90;;
17214;SDS011;8723;51.502;6.918;2023-02-28T14:50:48;2.97;;;2.78;;
17214;SDS011;8723;51.502;6.918;2023-02-28T14:53:15;3.58;;;3.15;;
17214;SDS011;8723;51.502;6.918;2023-02-28T14:55:44;3.63;;;3.23;;
17214;SDS011;8723;51.502;6.918;2023-02-28T14:58:17;3.30;;;3.10;;
17214;SDS011;8723;51.502;6.918;2023-02-28T15:00:48;4.03;;;3.40;;
17214;SDS011;8723;51.502;6.918;2023-02-28T15:03:19;4.13;;;3.60;;
17214;SDS011;8723;51.502;6.918;2023-02-28T15:05:52;5.37;;;3.83;;
17214;SDS011;8723;51.502;6.918;2023-02-28T15:08:20;3.50;;;3.20;;
17214;SDS011;8723;51.502;6.918;2023-02-28T15:10:50;4.18;;;3.33;;
17214;SDS011;8723;51.502;6.918;2023-02-28T15:13:18;3.47;;;2.90;;
17214;SDS011;8723;51.502;6.918;2023-02-28T15:15:47;3.05;;;2.85;;
17214;SDS011;8723;51.502;6.918;2023-02-28T15:18:21;3.90;;;3.40;;
17214;SDS011;8723;51.502;6.918;2023-02-28T15:20:49;5.40;;;3.72;;
17214;SDS011;8723;51.502;6.918;2023-02-28T15:23:17;4.22;;;3.58;;
17214;SDS011;8723;51.502;6.918;2023-02-28T15:25:45;5.30;;;4.80;;
17214;SDS011;8723;51.502;6.918;2023-02-28T15:28:16;3.75;;;3.45;;
17214;SDS011;8723;51.502;6.918;2023-02-28T15:30:52;4.00;;;3.60;;
17214;SDS011;8723;51.502;6.918;2023-02-28T15:33:21;4.83;;;4.17;;
17214;SDS011;8723;51.502;6.918;2023-02-28T15:35:48;4.38;;;3.97;;
17214;SDS011;8723;51.502;6.918;2023-02-28T15:38:17;4.10;;;3.80;;